Terminal Aerodrome Forecast
Issued by NWS Jackson, KY

Home | Current Version | Previous Version | Text Only | Print | Product List | Glossary On
Versions: 1 2 3 4 5 6 7 8 9 10 11 12 13 14 15 16 17 18 19
000
FTUS43 KJKL 260003 AAA
TAFLOZ
TAF AMD
KLOZ 260003Z 2600/2624 29003KT P6SM SCT050 BKN250
     FM260600 VRB03KT 3SM BR BKN020
     FM260900 00000KT 1SM BR OVC007
     FM261400 09005KT P6SM BKN040
     FM262100 VRB03KT P6SM -RA OVC030=

USA.gov is the U.S. government's official web portal to all federal, state and local government web resources and services.